PTI737 ZSQD-ZSAM
Flight info
| Callsign | PTI737 |
|---|---|
| Flight time | N/A |
| Altitude | 37100 |
| Route | LAT91D LATUX W108 MATNU W115 PINOT W13 BEGMO W117 DST B221 LJG A470 ENVEN ENVEN8X |
| Aircraft | B737/M-SDE2E3FGHIRWXY/LB1 |
Departure
| Time | 2026-05-08 07:12 |
|---|---|
| Airport | Qingdao Jiaodong International Airport (ZSQD) |
Arrival
| Time | N/A |
|---|---|
| Airport | Xiamen Gaoqi International Airport (ZSAM) |
| Time | Latitude | Longitude | Altitude | Speed | Heading |
|---|---|---|---|---|---|
| 2026-05-08 06:29 | 36.37072 | 120.07608 | 37 ft | 0 kts | 343° |
| 2026-05-08 07:03 | 36.37064 | 120.07611 | 37 ft | 4 kts | 343° |
| 2026-05-08 07:03 | 36.37038 | 120.07621 | 37 ft | 4 kts | 333° |
| 2026-05-08 07:04 | 36.37022 | 120.07640 | 37 ft | 4 kts | 277° |
| 2026-05-08 07:04 | 36.37023 | 120.07664 | 37 ft | 1 kts | 252° |
| 2026-05-08 07:04 | 36.37024 | 120.07668 | 37 ft | 0 kts | 252° |
| 2026-05-08 07:06 | 36.37001 | 120.07577 | 37 ft | 23 kts | 252° |
| 2026-05-08 07:06 | 36.36918 | 120.07457 | 36 ft | 19 kts | 162° |
| 2026-05-08 07:07 | 36.36759 | 120.07520 | 36 ft | 31 kts | 162° |
| 2026-05-08 07:07 | 36.36550 | 120.07604 | 38 ft | 31 kts | 162° |
| 2026-05-08 07:07 | 36.36349 | 120.07683 | 37 ft | 29 kts | 162° |
| 2026-05-08 07:07 | 36.36162 | 120.07757 | 37 ft | 27 kts | 162° |
| 2026-05-08 07:08 | 36.36044 | 120.07803 | 37 ft | 26 kts | 162° |
| 2026-05-08 07:08 | 36.35876 | 120.07867 | 37 ft | 24 kts | 163° |
| 2026-05-08 07:08 | 36.35721 | 120.07926 | 37 ft | 23 kts | 163° |
| 2026-05-08 07:08 | 36.35569 | 120.07984 | 36 ft | 22 kts | 162° |
| 2026-05-08 07:09 | 36.35424 | 120.08042 | 34 ft | 22 kts | 161° |
| 2026-05-08 07:09 | 36.35282 | 120.08099 | 36 ft | 26 kts | 162° |
| 2026-05-08 07:09 | 36.35090 | 120.08174 | 34 ft | 28 kts | 162° |
| 2026-05-08 07:09 | 36.34909 | 120.08244 | 35 ft | 26 kts | 162° |
| 2026-05-08 07:10 | 36.34739 | 120.08311 | 35 ft | 25 kts | 162° |
| 2026-05-08 07:10 | 36.34583 | 120.08375 | 34 ft | 23 kts | 162° |
| 2026-05-08 07:10 | 36.34433 | 120.08434 | 35 ft | 22 kts | 163° |
| 2026-05-08 07:10 | 36.34264 | 120.08497 | 35 ft | 23 kts | 163° |
| 2026-05-08 07:11 | 36.34147 | 120.08545 | 35 ft | 14 kts | 161° |
| 2026-05-08 07:11 | 36.34059 | 120.08568 | 51 ft | 13 kts | 206° |
| 2026-05-08 07:11 | 36.34037 | 120.08391 | 33 ft | 27 kts | 311° |
| 2026-05-08 07:11 | 36.34375 | 120.08234 | 34 ft | 90 kts | 342° |
| 2026-05-08 07:12 | 36.35202 | 120.07916 | 55 ft | 153 kts | 343° |
| 2026-05-08 07:12 | 36.36200 | 120.07544 | 944 ft | 136 kts | 338° |
| 2026-05-08 07:12 | 36.37137 | 120.07156 | 1580 ft | 155 kts | 334° |
| 2026-05-08 07:12 | 36.38174 | 120.06396 | 1973 ft | 189 kts | 322° |
| 2026-05-08 07:13 | 36.39368 | 120.05400 | 2323 ft | 226 kts | 324° |
| 2026-05-08 07:13 | 36.40789 | 120.04258 | 2798 ft | 253 kts | 326° |
| 2026-05-08 07:13 | 36.42271 | 120.03088 | 3886 ft | 253 kts | 327° |
| 2026-05-08 07:13 | 36.43923 | 120.02372 | 4885 ft | 261 kts | 350° |
| 2026-05-08 07:14 | 36.45781 | 120.02368 | 5912 ft | 267 kts | 5° |
| 2026-05-08 07:14 | 36.47588 | 120.02970 | 6991 ft | 273 kts | 18° |
| 2026-05-08 07:14 | 36.49397 | 120.03665 | 8110 ft | 272 kts | 15° |
| 2026-05-08 07:14 | 36.50983 | 120.04957 | 9296 ft | 280 kts | 45° |
| 2026-05-08 07:15 | 36.52005 | 120.07045 | 10399 ft | 291 kts | 66° |
| 2026-05-08 07:15 | 36.52323 | 120.09572 | 11342 ft | 305 kts | 90° |
| 2026-05-08 07:15 | 36.51754 | 120.12155 | 12321 ft | 318 kts | 116° |
| 2026-05-08 07:15 | 36.50346 | 120.14317 | 13307 ft | 328 kts | 139° |
| 2026-05-08 07:16 | 36.48442 | 120.15931 | 14233 ft | 335 kts | 150° |
| 2026-05-08 07:16 | 36.46354 | 120.17287 | 15123 ft | 342 kts | 154° |
| 2026-05-08 07:16 | 36.44198 | 120.18580 | 16073 ft | 347 kts | 156° |
| 2026-05-08 07:16 | 36.42002 | 120.19891 | 17001 ft | 353 kts | 156° |
| 2026-05-08 07:17 | 36.39778 | 120.21240 | 17934 ft | 359 kts | 156° |
| 2026-05-08 07:17 | 36.37529 | 120.22630 | 18853 ft | 363 kts | 156° |
| 2026-05-08 07:17 | 36.35259 | 120.24054 | 19670 ft | 369 kts | 156° |
| 2026-05-08 07:17 | 36.32950 | 120.25514 | 20476 ft | 376 kts | 156° |
| 2026-05-08 07:18 | 36.30637 | 120.26985 | 21281 ft | 382 kts | 157° |
| 2026-05-08 07:18 | 36.28227 | 120.28522 | 22117 ft | 388 kts | 157° |
| 2026-05-08 07:18 | 36.25813 | 120.30063 | 22931 ft | 394 kts | 158° |
| 2026-05-08 07:18 | 36.23360 | 120.31628 | 23723 ft | 400 kts | 158° |
| 2026-05-08 07:19 | 36.20867 | 120.33218 | 24377 ft | 406 kts | 159° |
| 2026-05-08 07:19 | 36.18374 | 120.34807 | 25062 ft | 411 kts | 159° |
| 2026-05-08 07:19 | 36.15818 | 120.36436 | 25740 ft | 416 kts | 160° |
| 2026-05-08 07:19 | 36.13231 | 120.38083 | 26407 ft | 420 kts | 160° |
| 2026-05-08 07:20 | 36.10630 | 120.39739 | 27198 ft | 422 kts | 161° |
| 2026-05-08 07:20 | 36.07972 | 120.41429 | 27876 ft | 427 kts | 162° |
| 2026-05-08 07:20 | 36.05342 | 120.43097 | 28467 ft | 433 kts | 162° |
| 2026-05-08 07:20 | 36.02641 | 120.44811 | 29070 ft | 439 kts | 162° |
| 2026-05-08 07:21 | 35.99916 | 120.46542 | 29689 ft | 443 kts | 162° |
| 2026-05-08 07:21 | 35.97160 | 120.48288 | 30278 ft | 448 kts | 163° |
| 2026-05-08 07:21 | 35.94363 | 120.50006 | 30780 ft | 448 kts | 166° |
| 2026-05-08 07:21 | 35.91525 | 120.51597 | 31336 ft | 448 kts | 167° |
| 2026-05-08 07:22 | 35.88669 | 120.53133 | 31875 ft | 448 kts | 168° |
| 2026-05-08 07:22 | 35.85810 | 120.54662 | 32441 ft | 448 kts | 168° |
| 2026-05-08 07:22 | 35.82953 | 120.56202 | 32955 ft | 450 kts | 168° |
| 2026-05-08 07:22 | 35.80077 | 120.57766 | 33384 ft | 453 kts | 168° |
| 2026-05-08 07:23 | 35.77183 | 120.59349 | 33788 ft | 457 kts | 168° |
| 2026-05-08 07:23 | 35.74272 | 120.60943 | 34186 ft | 459 kts | 168° |
| 2026-05-08 07:23 | 35.71362 | 120.62627 | 34525 ft | 467 kts | 164° |
| 2026-05-08 07:23 | 35.68473 | 120.64527 | 34828 ft | 474 kts | 162° |
| 2026-05-08 07:24 | 35.65591 | 120.66524 | 35116 ft | 478 kts | 161° |
| 2026-05-08 07:24 | 35.62690 | 120.68552 | 35343 ft | 481 kts | 161° |
| 2026-05-08 07:24 | 35.59770 | 120.70569 | 35692 ft | 481 kts | 161° |
| 2026-05-08 07:24 | 35.56838 | 120.72565 | 36038 ft | 482 kts | 162° |
| 2026-05-08 07:25 | 35.53890 | 120.74549 | 36279 ft | 485 kts | 162° |
| 2026-05-08 07:25 | 35.50919 | 120.76539 | 36491 ft | 489 kts | 162° |
| 2026-05-08 07:25 | 35.44831 | 120.80225 | 36970 ft | 485 kts | 168° |
| 2026-05-08 07:26 | 35.41701 | 120.81767 | 37214 ft | 485 kts | 170° |
| 2026-05-08 07:26 | 35.35329 | 120.84791 | 37226 ft | 499 kts | 169° |
| 2026-05-08 07:27 | 35.28791 | 120.87982 | 37255 ft | 511 kts | 168° |
| 2026-05-08 07:27 | 35.22215 | 120.91267 | 37232 ft | 510 kts | 168° |
| 2026-05-08 07:28 | 35.15652 | 120.94527 | 37241 ft | 509 kts | 168° |
| 2026-05-08 07:28 | 35.09101 | 120.97775 | 37204 ft | 508 kts | 168° |
| 2026-05-08 07:29 | 35.02566 | 121.01020 | 37244 ft | 507 kts | 168° |
| 2026-05-08 07:29 | 34.96032 | 121.04259 | 37251 ft | 507 kts | 168° |
| 2026-05-08 07:30 | 34.89495 | 121.07494 | 37249 ft | 507 kts | 168° |
| 2026-05-08 07:30 | 34.82959 | 121.10722 | 37240 ft | 506 kts | 168° |
| 2026-05-08 07:31 | 34.76426 | 121.13943 | 37256 ft | 506 kts | 168° |
| 2026-05-08 07:31 | 34.69900 | 121.17155 | 37259 ft | 506 kts | 168° |
| 2026-05-08 07:32 | 34.63368 | 121.20365 | 37266 ft | 506 kts | 168° |
| 2026-05-08 07:32 | 34.56839 | 121.23568 | 37262 ft | 506 kts | 168° |
| 2026-05-08 07:33 | 34.50307 | 121.26766 | 37262 ft | 506 kts | 168° |
| 2026-05-08 07:33 | 34.43775 | 121.29959 | 37258 ft | 506 kts | 168° |
| 2026-05-08 07:34 | 34.37245 | 121.33146 | 37276 ft | 506 kts | 168° |
| 2026-05-08 07:34 | 34.30705 | 121.36333 | 37255 ft | 506 kts | 168° |
| 2026-05-08 07:35 | 34.24168 | 121.39513 | 37272 ft | 507 kts | 168° |
| 2026-05-08 07:35 | 34.17625 | 121.42690 | 37273 ft | 507 kts | 168° |
| 2026-05-08 07:36 | 34.11072 | 121.45867 | 37265 ft | 508 kts | 168° |
| 2026-05-08 07:36 | 34.04513 | 121.49042 | 37260 ft | 508 kts | 168° |
| 2026-05-08 07:37 | 33.97945 | 121.52214 | 37267 ft | 509 kts | 168° |
| 2026-05-08 07:37 | 33.91365 | 121.55389 | 37277 ft | 509 kts | 168° |
| 2026-05-08 07:38 | 33.84788 | 121.58558 | 37272 ft | 509 kts | 168° |
| 2026-05-08 07:38 | 33.78220 | 121.61718 | 37270 ft | 506 kts | 168° |
| 2026-05-08 07:39 | 33.71692 | 121.64853 | 37270 ft | 504 kts | 168° |
| 2026-05-08 07:39 | 33.65201 | 121.67995 | 37270 ft | 503 kts | 168° |
| 2026-05-08 07:40 | 33.58722 | 121.71145 | 37276 ft | 502 kts | 168° |
| 2026-05-08 07:40 | 33.52260 | 121.74280 | 37275 ft | 500 kts | 168° |
| 2026-05-08 07:41 | 33.45825 | 121.77420 | 37269 ft | 499 kts | 168° |
| 2026-05-08 07:41 | 33.39395 | 121.80560 | 37268 ft | 499 kts | 168° |
| 2026-05-08 07:42 | 33.32969 | 121.83691 | 37279 ft | 499 kts | 168° |
| 2026-05-08 07:42 | 33.26543 | 121.86814 | 37267 ft | 498 kts | 167° |
| 2026-05-08 07:43 | 33.20117 | 121.89932 | 37275 ft | 499 kts | 167° |
| 2026-05-08 07:43 | 33.13685 | 121.93048 | 37279 ft | 499 kts | 167° |
| 2026-05-08 07:44 | 33.07247 | 121.96163 | 37278 ft | 500 kts | 167° |
| 2026-05-08 07:44 | 33.00800 | 121.99277 | 37263 ft | 500 kts | 167° |
| 2026-05-08 07:45 | 32.94351 | 122.02387 | 37273 ft | 500 kts | 167° |
| 2026-05-08 07:45 | 32.87894 | 122.05496 | 37279 ft | 501 kts | 167° |
| 2026-05-08 07:46 | 32.81474 | 122.08583 | 37273 ft | 501 kts | 167° |
| 2026-05-08 07:46 | 32.75007 | 122.11687 | 37255 ft | 501 kts | 167° |
| 2026-05-08 07:47 | 32.68540 | 122.14787 | 37275 ft | 502 kts | 167° |
| 2026-05-08 07:47 | 32.62069 | 122.17884 | 37284 ft | 502 kts | 167° |
| 2026-05-08 07:48 | 32.55584 | 122.20982 | 37282 ft | 502 kts | 167° |
| 2026-05-08 07:48 | 32.49102 | 122.24074 | 37259 ft | 502 kts | 167° |
| 2026-05-08 07:49 | 32.42620 | 122.27161 | 37278 ft | 502 kts | 167° |
| 2026-05-08 07:49 | 32.36137 | 122.30243 | 37283 ft | 502 kts | 167° |
| 2026-05-08 07:50 | 32.29662 | 122.33318 | 37282 ft | 502 kts | 167° |
| 2026-05-08 07:50 | 32.24223 | 122.35897 | 37277 ft | 502 kts | 167° |
| 2026-05-08 07:51 | 32.17778 | 122.38949 | 37287 ft | 502 kts | 167° |
| 2026-05-08 07:51 | 32.11291 | 122.42015 | 37278 ft | 502 kts | 167° |
| 2026-05-08 07:52 | 32.04801 | 122.45078 | 37282 ft | 503 kts | 167° |
| 2026-05-08 07:52 | 31.98306 | 122.48139 | 37284 ft | 503 kts | 167° |
| 2026-05-08 07:53 | 31.91808 | 122.51197 | 37281 ft | 503 kts | 167° |
| 2026-05-08 07:53 | 31.85304 | 122.54254 | 37278 ft | 503 kts | 167° |
| 2026-05-08 07:54 | 31.78810 | 122.57302 | 37280 ft | 503 kts | 167° |
| 2026-05-08 07:54 | 31.72309 | 122.60339 | 37281 ft | 501 kts | 169° |
| 2026-05-08 07:54 | 31.69001 | 122.61208 | 37250 ft | 475 kts | 188° |
| 2026-05-08 07:55 | 31.65790 | 122.60964 | 37284 ft | 455 kts | 201° |
| 2026-05-08 07:55 | 31.62799 | 122.59973 | 37291 ft | 440 kts | 212° |
| 2026-05-08 07:55 | 31.60144 | 122.58340 | 37281 ft | 424 kts | 224° |
| 2026-05-08 07:56 | 31.55476 | 122.54192 | 37274 ft | 422 kts | 226° |
| 2026-05-08 07:56 | 31.50788 | 122.50023 | 37277 ft | 424 kts | 225° |
| 2026-05-08 07:57 | 31.45693 | 122.46405 | 37284 ft | 441 kts | 211° |
| 2026-05-08 07:57 | 31.39635 | 122.44555 | 37271 ft | 465 kts | 195° |
| 2026-05-08 07:58 | 31.33109 | 122.44256 | 37276 ft | 470 kts | 192° |
| 2026-05-08 07:58 | 31.26582 | 122.43937 | 37252 ft | 469 kts | 193° |
| 2026-05-08 07:59 | 31.20067 | 122.43556 | 37271 ft | 469 kts | 193° |
| 2026-05-08 07:59 | 31.13551 | 122.43174 | 37274 ft | 469 kts | 193° |
| 2026-05-08 08:00 | 31.07032 | 122.42801 | 37271 ft | 469 kts | 193° |
| 2026-05-08 08:00 | 31.00515 | 122.42430 | 37273 ft | 469 kts | 193° |
| 2026-05-08 08:01 | 30.94038 | 122.42064 | 37279 ft | 469 kts | 193° |
| 2026-05-08 08:01 | 30.87467 | 122.41697 | 37271 ft | 470 kts | 193° |
| 2026-05-08 08:02 | 30.80984 | 122.41335 | 37236 ft | 470 kts | 193° |
| 2026-05-08 08:02 | 30.74456 | 122.40972 | 37259 ft | 470 kts | 193° |
| 2026-05-08 08:03 | 30.67925 | 122.40608 | 37273 ft | 470 kts | 193° |
| 2026-05-08 08:03 | 30.61391 | 122.40244 | 37270 ft | 470 kts | 193° |
| 2026-05-08 08:04 | 30.54854 | 122.39885 | 37262 ft | 470 kts | 193° |
| 2026-05-08 08:04 | 30.48319 | 122.39538 | 37268 ft | 470 kts | 193° |
| 2026-05-08 08:05 | 30.41776 | 122.39191 | 37269 ft | 471 kts | 193° |
| 2026-05-08 08:05 | 30.35232 | 122.38843 | 37279 ft | 471 kts | 193° |
| 2026-05-08 08:06 | 30.28683 | 122.38495 | 37264 ft | 471 kts | 193° |
| 2026-05-08 08:06 | 30.22125 | 122.38135 | 37272 ft | 472 kts | 194° |
| 2026-05-08 08:07 | 30.15571 | 122.37716 | 37273 ft | 472 kts | 194° |
| 2026-05-08 08:07 | 30.09017 | 122.37294 | 37239 ft | 472 kts | 194° |
| 2026-05-08 08:08 | 30.02459 | 122.36880 | 37261 ft | 472 kts | 194° |
| 2026-05-08 08:08 | 29.95892 | 122.36469 | 37269 ft | 473 kts | 193° |
| 2026-05-08 08:08 | 29.92570 | 122.36467 | 37259 ft | 484 kts | 186° |
| 2026-05-08 08:09 | 29.89191 | 122.37036 | 37270 ft | 495 kts | 179° |
| 2026-05-08 08:09 | 29.82421 | 122.38684 | 37258 ft | 498 kts | 178° |
| 2026-05-08 08:10 | 29.75646 | 122.40373 | 37255 ft | 498 kts | 178° |
| 2026-05-08 08:10 | 29.68870 | 122.41986 | 37261 ft | 497 kts | 179° |
| 2026-05-08 08:11 | 29.62089 | 122.43561 | 37260 ft | 497 kts | 179° |
| 2026-05-08 08:11 | 29.55313 | 122.45129 | 37257 ft | 497 kts | 179° |
| 2026-05-08 08:12 | 29.48531 | 122.46701 | 37259 ft | 497 kts | 179° |
| 2026-05-08 08:12 | 29.41759 | 122.48271 | 37257 ft | 497 kts | 179° |
| 2026-05-08 08:13 | 29.34984 | 122.49839 | 37225 ft | 496 kts | 179° |
| 2026-05-08 08:13 | 29.28261 | 122.51393 | 37250 ft | 496 kts | 179° |
| 2026-05-08 08:14 | 29.21532 | 122.52342 | 37253 ft | 473 kts | 195° |
| 2026-05-08 08:14 | 29.18342 | 122.51797 | 37259 ft | 457 kts | 205° |
| 2026-05-08 08:14 | 29.15361 | 122.50685 | 37251 ft | 443 kts | 215° |
| 2026-05-08 08:15 | 29.09974 | 122.47472 | 37223 ft | 437 kts | 218° |
| 2026-05-08 08:15 | 29.04584 | 122.44230 | 37243 ft | 438 kts | 218° |
| 2026-05-08 08:16 | 28.99162 | 122.41016 | 37253 ft | 440 kts | 217° |
| 2026-05-08 08:16 | 28.93720 | 122.37814 | 37252 ft | 440 kts | 217° |
| 2026-05-08 08:17 | 28.88268 | 122.34614 | 37228 ft | 441 kts | 217° |
| 2026-05-08 08:17 | 28.82813 | 122.31417 | 37243 ft | 441 kts | 217° |
| 2026-05-08 08:18 | 28.77354 | 122.28219 | 37244 ft | 441 kts | 217° |
| 2026-05-08 08:18 | 28.71893 | 122.25024 | 37254 ft | 441 kts | 217° |
| 2026-05-08 08:19 | 28.66425 | 122.21829 | 37222 ft | 441 kts | 217° |
| 2026-05-08 08:19 | 28.60961 | 122.18639 | 37240 ft | 442 kts | 217° |
| 2026-05-08 08:20 | 28.55484 | 122.15445 | 37256 ft | 442 kts | 217° |
| 2026-05-08 08:20 | 28.50003 | 122.12253 | 37249 ft | 443 kts | 217° |
| 2026-05-08 08:21 | 28.44515 | 122.09061 | 37237 ft | 443 kts | 217° |
| 2026-05-08 08:21 | 28.39022 | 122.05869 | 37252 ft | 444 kts | 217° |
| 2026-05-08 08:22 | 28.33521 | 122.02677 | 37252 ft | 444 kts | 217° |
| 2026-05-08 08:22 | 28.28024 | 121.99491 | 37252 ft | 444 kts | 217° |
| 2026-05-08 08:23 | 28.22519 | 121.96302 | 37222 ft | 445 kts | 217° |
| 2026-05-08 08:23 | 28.17039 | 121.93133 | 37237 ft | 445 kts | 217° |
| 2026-05-08 08:24 | 28.11521 | 121.89945 | 37243 ft | 445 kts | 217° |
| 2026-05-08 08:24 | 28.05959 | 121.86735 | 37239 ft | 446 kts | 217° |
| 2026-05-08 08:24 | 28.03311 | 121.85051 | 37229 ft | 434 kts | 226° |
| 2026-05-08 08:25 | 28.01210 | 121.82723 | 37250 ft | 416 kts | 239° |
| 2026-05-08 08:25 | 27.98631 | 121.77073 | 37245 ft | 399 kts | 260° |
| 2026-05-08 08:26 | 27.97382 | 121.70973 | 37241 ft | 398 kts | 262° |
| 2026-05-08 08:26 | 27.96201 | 121.64843 | 37239 ft | 399 kts | 262° |